Latest Weather Observations for Ernabella/Pukatja

IDD60801

Issued at 5:31 pm CST Wednesday 18 January 2017 (issued every 30 minutes, with the page automatically refreshed every 10 minutes)

About weather observations | Map of weather stations | Latest weather observations for NT | Other Formats
Station Details ID: 016097 Name: PUKATJA Lat: -26.26 Lon: 132.18 Height: 703.2 m
Data from the previous 72 hours. | See also: Recent months at Ernabella/Pukatja
Date/Time
CST
Temp
°C
App
Temp
°C
Dew
Point
°C
Rel
Hum
%
Delta-T
°C
Wind Press
QNH
hPa
Press
MSL
hPa
Rain since
9am
mm
Dir  Spd
km/h
Gust
km/h
Spd
kts
Gust
kts
18/05:30pm 35.6 36.2 18.7 37 11.4 NE 13 26 7 14 1007.5 1002.1 0.0
18/05:00pm 35.5 36.1 18.6 37 11.4 N 13 17 7 9 1007.4 1002.0 0.0
18/04:30pm 34.8 34.2 17.5 35 11.5 NE 17 22 9 12 1007.9 1002.4 0.0
18/04:00pm 35.1 35.7 18.6 37 11.1 NE 13 26 7 14 1008.1 1002.6 0.0
18/03:30pm 35.1 34.9 18.6 37 11.1 NE 17 24 9 13 1008.4 1003.0 0.0
18/03:00pm 34.8 35.3 18.4 38 11.0 NE 13 22 7 12 1008.7 1003.3 0.0
18/02:30pm 35.1 35.5 19.1 39 10.8 NNE 15 24 8 13 1009.2 1003.8 0.0
18/02:00pm 35.1 35.5 19.1 39 10.8 NE 15 26 8 14 1009.7 1004.3 0.0
18/01:30pm 34.1 34.3 18.6 40 10.4 NE 15 22 8 12 1010.0 1004.6 0.0
18/01:00pm 34.0 33.4 18.5 40 10.4 NNE 19 28 10 15 1010.3 1004.9 0.0
18/12:30pm 33.7 34.4 20.5 46 9.1 NNE 17 26 9 14 1010.5 1005.1 0.0
18/12:00pm 32.8 32.8 19.7 46 8.9 NNE 19 28 10 15 1010.9 1005.5 0.0
18/11:30am 32.6 33.0 19.8 46 8.7 NE 17 26 9 14 1011.2 1005.8 0.0
18/11:00am 32.2 31.9 19.1 45 8.8 NE 19 26 10 14 1011.3 1005.9 0.0
18/10:30am 32.2 33.5 20.8 51 7.8 NNE 15 28 8 15 1011.3 1005.9 0.0
18/10:00am 31.1 32.9 20.4 53 7.3 NNW 11 17 6 9 1011.2 1005.8 0.0
18/09:30am 30.6 32.1 20.5 54 6.9 N 13 20 7 11 1011.3 1005.9 0.0
18/09:00am 30.2 32.5 21.3 59 6.1 N 11 19 6 10 1011.3 1005.9 0.0
18/08:30am 29.6 31.9 20.7 58 6.1 NNW 9 15 5 8 1011.2 1005.8 0.0
18/08:00am 28.9 30.0 20.4 60 5.8 NNE 15 20 8 11 1011.1 1005.7 0.0
18/07:30am 28.4 30.4 20.7 63 5.2 N 11 15 6 8 1011.1 1005.7 0.0
18/07:00am 27.4 29.6 20.5 66 4.7 NE 9 13 5 7 1011.1 1005.7 0.0
18/06:30am 26.2 28.9 20.3 70 4.0 NNE 6 7 3 4 1010.9 1005.5 0.0
18/06:00am 25.8 27.9 20.1 71 3.8 NE 9 13 5 7 1010.5 1005.1 0.0
18/05:30am 26.3 29.1 19.7 67 4.4 NNE 4 7 2 4 1010.1 1004.7 0.0
18/05:00am 26.8 28.7 19.7 65 4.7 NNE 9 17 5 9 1009.8 1004.4 0.0
18/04:30am 27.2 28.5 19.3 62 5.3 NNE 11 15 6 8 1009.2 1003.8 0.0
18/04:00am 27.4 28.7 19.2 61 5.4 NNE 11 17 6 9 1009.1 1003.7 0.0
18/03:30am 28.1 28.2 19.1 58 6.0 NE 17 20 9 11 1008.9 1003.5 0.0
18/03:00am 28.2 28.9 18.9 57 6.2 NE 13 17 7 9 1008.7 1003.3 0.0
18/02:30am 28.6 29.2 18.7 55 6.6 NE 13 20 7 11 1008.8 1003.4 0.0
18/02:00am 29.3 29.2 18.7 52 7.0 NE 17 22 9 12 1008.9 1003.5 0.0
18/01:30am 29.3 30.3 18.7 52 7.0 NE 11 15 6 8 1009.0 1003.6 0.0
18/01:00am 30.0 30.1 18.4 49 7.7 NE 15 20 8 11 1009.4 1003.9 0.0
18/12:30am 29.9 30.2 18.7 51 7.4 NE 15 20 8 11 1009.6 1004.2 0.0
18/12:00am 28.8 30.0 19.1 55 6.4 ENE 11 15 6 8 1010.0 1004.6 0.0
 
Date/Time
CST
Temp
°C
App
Temp
°C
Dew
Point
°C
Rel
Hum
%
Delta-T
°C
Wind Press
QNH
hPa
Press
MSL
hPa
Rain since
9am
mm
Dir  Spd
km/h
Gust
km/h
Spd
kts
Gust
kts
17/11:30pm 29.6 30.8 19.0 53 7.1 E 11 13 6 7 1010.3 1004.9 0.0
17/11:00pm 29.9 31.3 18.7 51 7.4 E 9 11 5 6 1010.4 1005.0 0.0
17/10:30pm 30.6 30.9 18.0 47 8.3 ENE 13 20 7 11 1010.3 1004.9 0.0
17/10:00pm 30.2 30.4 17.6 46 8.2 NE 13 17 7 9 1009.9 1004.5 0.0
17/09:30pm 30.9 30.6 16.5 42 9.3 ENE 13 17 7 9 1009.8 1004.4 0.0
17/09:00pm 32.0 32.0 16.3 39 10.1 E 11 15 6 8 1009.6 1004.2 0.0
17/08:30pm 32.0 32.4 16.3 39 10.1 ESE 9 17 5 9 1009.1 1003.7 0.0
17/08:00pm 31.4 31.9 16.6 41 9.6 E 9 15 5 8 1008.7 1003.3 0.0
17/07:30pm 32.3 33.1 17.4 41 9.8 ENE 9 13 5 7 1008.3 1002.9 0.0
17/07:00pm 33.9 32.9 16.7 35 11.2 ENE 17 22 9 12 1007.9 1002.4 0.0
17/06:30pm 34.8 32.9 16.6 33 11.9 ENE 22 28 12 15 1007.5 1002.1 0.0
17/06:00pm 33.8 30.9 17.1 37 11.0 ENE 28 35 15 19 1007.4 1002.0 0.0
17/05:53pm 34.4 31.4 16.7 34 11.6 E 28 39 15 21 1007.2 1001.8 0.0
17/05:30pm 35.2 34.5 15.5 30 12.7 SE 13 20 7 11 1007.2 1001.8 0.0
17/05:00pm 35.5 33.4 14.7 28 13.3 SE 19 28 10 15 1007.3 1001.9 0.0
17/04:30pm 37.0 36.1 14.9 27 14.2 E 13 28 7 15 1007.4 1002.0 0.0
17/04:00pm 36.1 35.3 15.2 28 13.4 E 13 26 7 14 1007.8 1002.3 0.0
17/03:30pm 35.8 34.2 15.0 29 13.4 ESE 17 28 9 15 1008.0 1002.5 0.0
17/03:00pm 37.1 36.9 16.6 29 13.5 ENE 13 24 7 13 1008.2 1002.8 0.0
17/02:30pm 36.3 35.2 14.3 27 14.0 E 13 20 7 11 1008.7 1003.3 0.0
17/02:00pm 36.5 35.1 13.3 25 14.6 ENE 13 24 7 13 1009.1 1003.7 0.0
17/01:30pm 36.5 35.1 15.6 29 13.6 E 17 28 9 15 1009.7 1004.3 0.0
17/01:00pm 34.6 33.8 15.0 31 12.5 NE 13 26 7 14 1010.0 1004.6 0.0
17/12:30pm 36.0 34.3 15.7 30 13.2 ENE 19 30 10 16 1010.2 1004.8 0.0
17/12:00pm 35.2 34.5 16.5 33 12.2 E 15 24 8 13 1010.5 1005.1 0.0
17/11:30am 35.1 33.5 15.9 31 12.4 E 19 30 10 16 1010.9 1005.5 0.0
17/11:00am 34.2 33.9 16.5 34 11.5 E 13 24 7 13 1011.2 1005.8 0.0
17/10:30am 33.0 32.4 14.6 33 11.6 NNE 11 22 6 12 1011.4 1006.0 0.0
17/10:00am 32.5 30.8 11.1 27 12.8 NE 11 17 6 9 1011.5 1006.1 0.0
17/09:30am 31.9 29.6 7.5 22 13.8 ENE 9 13 5 7 1011.7 1006.3 0.0
17/09:00am 31.1 27.2 5.5 20 14.0 ENE 15 19 8 10 1011.8 1006.4 0.0
17/08:30am 29.8 26.2 5.1 21 13.3 NE 13 17 7 9 1011.8 1006.4 0.0
17/08:00am 28.4 26.1 7.6 27 11.6 NE 9 13 5 7 1011.6 1006.2 0.0
17/07:30am 26.6 24.6 7.1 29 10.7 NNE 7 9 4 5 1011.4 1006.0 0.0
17/07:00am 23.2 23.8 11.9 49 6.6 CALM 0 0 0 0 1011.1 1005.7 0.0
17/06:30am 20.9 21.6 12.1 57 5.1 CALM 0 0 0 0 1010.9 1005.5 0.0
17/06:00am 19.5 20.1 12.0 62 4.3 CALM 0 0 0 0 1010.3 1004.9 0.0
17/05:30am 18.7 18.6 13.3 71 3.2 E 6 7 3 4 1009.9 1004.5 0.0
17/05:00am 19.7 18.8 10.7 56 5.1 SW 6 7 3 4 1009.6 1004.2 0.0
17/04:30am 18.9 20.4 14.6 76 2.6 CALM 0 0 0 0 1009.4 1003.9 0.0
17/04:00am 19.7 19.3 12.9 65 4.0 SW 7 9 4 5 1009.4 1003.9 0.0
17/03:30am 19.5 19.5 14.1 71 3.2 SW 7 9 4 5 1009.6 1004.2 0.0
17/03:00am 20.3 18.9 11.0 55 5.3 SW 9 9 5 5 1009.8 1004.4 0.0
17/02:30am 20.5 21.0 11.7 57 5.1 CALM 0 0 0 0 1009.9 1004.5 0.0
17/02:00am 20.1 20.2 12.6 62 4.4 SSW 4 6 2 3 1010.2 1004.8 0.0
17/01:30am 21.7 20.8 10.5 49 6.3 WSW 6 7 3 4 1010.4 1005.0 0.0
17/01:00am 22.6 22.3 8.7 41 7.6 CALM 0 0 0 0 1010.3 1004.9 0.0
17/12:30am 22.9 22.2 10.0 44 7.3 NE 4 7 2 4 1010.5 1005.1 0.0
17/12:00am 23.8 22.9 10.5 43 7.6 NE 6 7 3 4 1010.7 1005.3 0.0
 
Date/Time
CST
Temp
°C
App
Temp
°C
Dew
Point
°C
Rel
Hum
%
Delta-T
°C
Wind Press
QNH
hPa
Press
MSL
hPa
Rain since
9am
mm
Dir  Spd
km/h
Gust
km/h
Spd
kts
Gust
kts
16/11:30pm 24.2 24.0 10.5 42 7.9 ENE 2 7 1 4 1011.0 1005.6 0.0
16/11:00pm 23.4 23.3 13.3 53 6.0 NE 6 7 3 4 1011.0 1005.6 0.0
16/10:30pm 24.9 25.2 14.4 52 6.4 E 6 7 3 4 1010.7 1005.3 0.0
16/10:00pm 25.9 25.4 12.0 42 8.2 E 6 9 3 5 1010.6 1005.2 0.0
16/09:30pm 26.3 25.2 10.0 36 9.4 ENE 6 9 3 5 1010.3 1004.9 0.0
16/09:00pm 26.0 25.5 12.5 43 8.0 ENE 7 11 4 6 1010.3 1004.9 0.0
16/08:30pm 28.4 26.6 9.6 31 10.8 ESE 9 11 5 6 1009.9 1004.5 0.0
16/08:00pm 29.4 27.7 10.0 30 11.3 E 9 13 5 7 1009.7 1004.3 0.0
16/07:30pm 31.0 29.5 10.4 28 12.2 E 9 13 5 7 1009.5 1004.1 0.0
16/07:00pm 33.4 30.1 6.6 19 15.0 NE 13 17 7 9 1009.4 1003.9 0.0
16/06:30pm 34.4 31.1 8.2 20 15.2 NE 15 20 8 11 1009.1 1003.7 0.0
16/06:00pm 34.9 31.0 7.1 18 15.8 ENE 17 26 9 14 1009.0 1003.6 0.0
16/05:30pm 35.3 33.0 7.4 18 16.0 E 9 15 5 8 1008.9 1003.5 0.0
16/05:00pm 35.2 32.1 7.3 18 16.0 ENE 13 20 7 11 1008.9 1003.5 0.0
16/04:30pm 35.3 32.8 8.2 19 15.7 NNE 11 20 6 11 1009.1 1003.7 0.0
16/04:00pm 35.4 32.2 8.3 19 15.7 NE 15 33 8 18 1009.6 1004.2 0.0
16/03:30pm 35.0 32.4 9.4 21 15.1 N 13 19 7 10 1010.0 1004.6 0.0
16/03:00pm 34.4 31.9 8.2 20 15.1 ENE 11 19 6 10 1010.3 1004.9 0.0
16/02:30pm 34.5 32.2 10.4 23 14.4 ENE 13 20 7 11 1010.6 1005.2 0.0
16/02:00pm 34.3 31.7 9.5 22 14.6 ENE 13 22 7 12 1011.0 1005.6 0.0
16/01:30pm 33.5 30.2 8.2 21 14.6 NE 15 20 8 11 1011.2 1005.8 0.0
16/01:00pm 33.4 30.3 8.8 22 14.3 NNE 15 22 8 12 1011.6 1006.2 0.0
16/12:30pm 33.0 30.1 9.7 24 13.7 E 15 24 8 13 1012.1 1006.8 0.0
16/12:00pm 32.5 28.3 7.4 21 14.2 NE 19 26 10 14 1012.5 1007.1 0.0
16/11:30am 31.9 27.8 6.2 20 14.2 NE 17 28 9 15 1012.9 1007.5 0.0
16/11:00am 31.0 26.7 5.4 20 13.9 NE 17 22 9 12 1013.1 1007.7 0.0
16/10:30am 30.6 26.6 6.5 22 13.3 NE 17 24 9 13 1013.3 1007.9 0.0
16/10:00am 29.5 24.3 5.6 22 12.9 NE 22 32 12 17 1013.6 1008.3 0.0
16/09:30am 29.0 23.6 6.4 24 12.4 ENE 24 33 13 18 1013.9 1008.5 0.0
16/09:00am 27.7 22.6 5.9 25 11.7 NE 22 33 12 18 1014.1 1008.7 0.0
16/08:30am 26.6 22.1 6.1 27 11.0 NE 19 24 10 13 1014.1 1008.7 0.0
16/08:00am 25.6 22.0 6.8 30 10.2 NE 15 20 8 11 1014.2 1008.8 0.0
16/07:30am 24.1 21.9 6.4 32 9.4 ENE 7 11 4 6 1014.1 1008.7 0.0
16/07:00am 22.4 19.9 6.6 36 8.4 NE 9 13 5 7 1013.7 1008.4 0.0
16/06:30am 20.3 17.2 7.3 43 6.9 NE 13 15 7 8 1013.5 1008.2 0.0
16/06:00am 19.1 16.1 7.8 48 6.0 NE 13 15 7 8 1013.1 1007.7 0.0
16/05:30am 20.5 17.8 7.2 42 7.0 NE 11 13 6 7 1012.9 1007.5 0.0
16/05:00am 21.0 18.7 7.3 41 7.3 ENE 9 13 5 7 1012.8 1007.4 0.0
16/04:30am 19.9 18.8 9.8 52 5.6 N 6 9 3 5 1012.7 1007.3 0.0
16/04:00am 20.8 18.5 9.1 47 6.4 NNE 11 11 6 6 1012.7 1007.3 0.0
16/03:30am 20.8 18.9 10.6 52 5.8 NNE 11 11 6 6 1012.7 1007.3 0.0
16/03:00am 20.5 18.6 11.7 57 5.1 ENE 13 15 7 8 1012.6 1007.2 0.0
16/02:30am 21.4 20.3 12.0 55 5.5 ENE 9 11 5 6 1012.6 1007.2 0.0
16/02:00am 21.6 21.1 12.5 56 5.3 NNE 7 9 4 5 1012.8 1007.4 0.0
16/01:30am 22.0 20.7 11.4 51 6.1 ENE 9 11 5 6 1012.9 1007.5 0.0
16/01:00am 22.7 20.6 11.1 48 6.7 E 13 13 7 7 1012.9 1007.5 0.0
16/12:30am 23.1 21.4 11.2 47 6.9 NE 11 11 6 6 1013.1 1007.7 0.0
16/12:00am 24.6 21.8 10.1 40 8.3 ENE 15 19 8 10 1013.2 1007.8 0.0
 
Date/Time
CST
Temp
°C
App
Temp
°C
Dew
Point
°C
Rel
Hum
%
Delta-T
°C
Wind Press
QNH
hPa
Press
MSL
hPa
Rain since
9am
mm
Dir  Spd
km/h
Gust
km/h
Spd
kts
Gust
kts
15/11:30pm 27.3 23.3 8.2 30 10.7 ESE 19 24 10 13 1013.3 1007.9 0.0
15/11:00pm 27.7 23.7 9.0 31 10.6 ESE 20 28 11 15 1013.5 1008.2 0.0
15/10:30pm 27.7 24.5 10.0 33 10.2 ESE 17 24 9 13 1013.3 1007.9 0.0
15/10:00pm 25.1 24.8 14.3 51 6.6 NE 9 11 5 6 1013.3 1007.9 0.0
15/09:30pm 26.7 26.0 13.1 43 8.2 ENE 9 15 5 8 1012.9 1007.5 0.0
15/09:00pm 28.4 26.4 11.5 35 10.0 E 13 17 7 9 1012.6 1007.2 0.0
15/08:30pm 28.9 26.3 11.9 35 10.2 E 17 20 9 11 1012.4 1007.0 0.0
15/08:00pm 28.6 27.0 12.9 38 9.5 E 13 19 7 10 1012.1 1006.8 0.0
15/07:30pm 29.5 28.1 13.3 37 9.9 E 13 15 7 8 1012.0 1006.6 0.0
15/07:00pm 30.3 28.3 12.7 34 10.7 ENE 15 19 8 10 1011.8 1006.4 0.0
15/06:30pm 31.8 28.2 13.1 32 11.5 ENE 24 32 13 17 1011.7 1006.3 0.0
15/06:00pm 32.4 29.4 12.6 30 12.1 E 20 30 11 16 1011.5 1006.1 0.0
15/05:30pm 31.8 28.4 12.6 31 11.7 E 22 32 12 17 1011.6 1006.2 0.0
15/05:00pm 32.5 29.9 13.7 32 11.7 ENE 20 32 11 17 1011.7 1006.3 0.0

Other Formats:

Comma delimited format used in spreadsheet applications
http://www.bom.gov.au/fwo/IDD60801/IDD60801.94474.axf

JavaScript Object Notation format (JSON) in row-major order
http://www.bom.gov.au/fwo/IDD60801/IDD60801.94474.json